Time;durP1;ratioP1;P1;durP2;ratioP2;P2;SDS_P1;SDS_P2;PMS_P1;PMS_P2;Temp;Humidity;BMP_temperature;BMP_pressure;BME280_temperature;BME280_humidity;BME280_pressure;Samples;Min_cycle;Max_cycle;Signal;HPM_P1;HPM_P2
2022/08/11 00:01:27;;;;;;;10.60;7.35;;;;;;;;;;6209109;23;20019;-86
2022/08/11 00:04:02;;;;;;;10.98;6.95;;;;;;;;;;6235982;23;20161;-86
2022/08/11 00:06:28;;;;;;;16.63;7.80;;;;;;;;;;6209310;23;20042;-87
2022/08/11 00:08:54;;;;;;;11.40;7.70;;;;;;;;;;6210329;23;20062;-87
2022/08/11 00:11:21;;;;;;;16.02;7.50;;;;;;;;;;6209629;23;20483;-88
2022/08/11 00:13:48;;;;;;;13.55;8.13;;;;;;;;;;6208944;23;20012;-87
2022/08/11 00:16:19;;;;;;;10.32;7.57;;;;;;;;;;6208348;23;20008;-87
2022/08/11 00:18:53;;;;;;;10.70;7.20;;;;;;;;;;6208875;23;20031;-87
2022/08/11 00:21:23;;;;;;;11.07;6.95;;;;;;;;;;6236022;23;20509;-87
2022/08/11 00:23:57;;;;;;;12.52;7.53;;;;;;;;;;6205787;22;20044;-87
2022/08/11 00:26:23;;;;;;;13.95;7.43;;;;;;;;;;6205003;23;20023;-87
2022/08/11 00:28:50;;;;;;;12.23;7.10;;;;;;;;;;6205974;23;20024;-87
2022/08/11 00:31:36;;;;;;;12.93;6.38;;;;;;;;;;6207687;23;20032;-87
2022/08/11 00:34:02;;;;;;;13.10;7.18;;;;;;;;;;6207756;23;19996;-87
2022/08/11 00:36:39;;;;;;;15.23;6.85;;;;;;;;;;6205526;23;20004;-87
2022/08/11 00:39:06;;;;;;;14.00;6.50;;;;;;;;;;6204264;23;20126;-87
2022/08/11 00:41:51;;;;;;;9.75;6.57;;;;;;;;;;6204213;23;20039;-86
2022/08/11 00:44:23;;;;;;;13.85;7.05;;;;;;;;;;6205474;23;20075;-87
2022/08/11 00:47:08;;;;;;;15.02;6.85;;;;;;;;;;6206400;23;20032;-87
2022/08/11 00:49:53;;;;;;;18.20;7.68;;;;;;;;;;6206357;23;20004;-87
2022/08/11 00:52:19;;;;;;;18.08;6.82;;;;;;;;;;6205779;23;20004;-87
2022/08/11 00:54:48;;;;;;;19.90;8.52;;;;;;;;;;6205031;23;20038;-87
2022/08/11 00:57:29;;;;;;;15.35;7.75;;;;;;;;;;6205467;23;20065;-87
2022/08/11 01:00:05;;;;;;;14.50;7.32;;;;;;;;;;6205816;23;20005;-86
2022/08/11 01:02:44;;;;;;;11.95;7.13;;;;;;;;;;6205114;23;20000;-87
2022/08/11 01:05:28;;;;;;;17.77;8.55;;;;;;;;;;6206144;23;20009;-86
2022/08/11 01:08:00;;;;;;;13.50;7.88;;;;;;;;;;6205922;23;20005;-87
2022/08/11 01:10:38;;;;;;;13.70;7.95;;;;;;;;;;6205402;23;20142;-87
2022/08/11 01:13:18;;;;;;;15.07;8.82;;;;;;;;;;6203899;23;20005;-87
2022/08/11 01:16:03;;;;;;;16.45;8.07;;;;;;;;;;6206401;23;20013;-87
2022/08/11 01:18:43;;;;;;;20.48;7.35;;;;;;;;;;6206181;23;20398;-87
2022/08/11 01:21:15;;;;;;;12.82;7.32;;;;;;;;;;6208691;23;20040;-86
2022/08/11 01:23:57;;;;;;;13.27;8.05;;;;;;;;;;6207780;22;20047;-87
2022/08/11 01:26:38;;;;;;;18.25;7.88;;;;;;;;;;6206667;23;20016;-87
2022/08/11 01:29:13;;;;;;;17.40;7.57;;;;;;;;;;6206110;23;20001;-87
2022/08/11 01:31:45;;;;;;;15.93;8.37;;;;;;;;;;6205923;23;20015;-87
2022/08/11 01:34:20;;;;;;;16.05;8.80;;;;;;;;;;6207686;23;20001;-87
2022/08/11 01:36:59;;;;;;;19.75;9.27;;;;;;;;;;6207389;23;20762;-87
2022/08/11 01:39:45;;;;;;;13.68;8.50;;;;;;;;;;6207547;23;20015;-87
2022/08/11 01:45:26;;;;;;;17.70;9.13;;;;;;;;;;6208783;23;20019;-88
2022/08/11 01:48:08;;;;;;;14.40;7.85;;;;;;;;;;6207828;23;20011;-87
2022/08/11 01:50:54;;;;;;;15.85;8.20;;;;;;;;;;6208000;23;20016;-86
2022/08/11 01:53:28;;;;;;;20.30;8.73;;;;;;;;;;6207082;23;20067;-87
2022/08/11 01:56:09;;;;;;;14.23;8.73;;;;;;;;;;6206487;23;20698;-87
2022/08/11 01:58:56;;;;;;;10.98;7.55;;;;;;;;;;6206753;23;20016;-87
2022/08/11 02:01:31;;;;;;;14.18;8.05;;;;;;;;;;6207512;23;20008;-87
2022/08/11 02:04:02;;;;;;;13.93;7.77;;;;;;;;;;6208869;23;20080;-87
2022/08/11 02:06:56;;;;;;;14.57;7.75;;;;;;;;;;6208072;23;20001;-87
2022/08/11 02:09:41;;;;;;;17.50;8.38;;;;;;;;;;6206930;23;20020;-87
2022/08/11 02:12:36;;;;;;;18.08;7.85;;;;;;;;;;6206513;23;20001;-87
2022/08/11 02:15:06;;;;;;;15.73;7.78;;;;;;;;;;6169038;23;20005;-86
2022/08/11 02:17:38;;;;;;;16.75;8.38;;;;;;;;;;6205693;23;20012;-87
2022/08/11 02:26:05;;;;;;;16.55;8.10;;;;;;;;;;6176473;23;20028;-88
2022/08/11 02:28:49;;;;;;;14.00;8.05;;;;;;;;;;6177397;23;20368;-88
2022/08/11 02:34:24;;;;;;;12.70;8.15;;;;;;;;;;6179340;23;20195;-88
2022/08/11 02:37:03;;;;;;;15.00;8.82;;;;;;;;;;6153573;23;20048;-88
2022/08/11 02:39:38;;;;;;;13.23;7.65;;;;;;;;;;6178410;23;20036;-88
2022/08/11 02:42:22;;;;;;;18.25;8.90;;;;;;;;;;6178283;23;20467;-88
2022/08/11 02:44:51;;;;;;;13.48;9.00;;;;;;;;;;6178841;23;20017;-88
2022/08/11 02:47:37;;;;;;;19.23;9.23;;;;;;;;;;6175040;23;20013;-88
2022/08/11 02:50:23;;;;;;;21.17;8.75;;;;;;;;;;6177274;23;20005;-88
2022/08/11 02:52:49;;;;;;;;;;;;;;;;;;6178801;23;20088;-88
2022/08/11 02:55:24;;;;;;;17.13;8.73;;;;;;;;;;6177497;23;19939;-88
2022/08/11 02:57:52;;;;;;;14.05;8.02;;;;;;;;;;6177772;23;20017;-87
2022/08/11 03:00:19;;;;;;;22.95;8.48;;;;;;;;;;6177726;23;20013;-88
2022/08/11 03:02:44;;;;;;;19.67;9.10;;;;;;;;;;6178335;23;20100;-89
2022/08/11 03:05:10;;;;;;;18.05;8.75;;;;;;;;;;6178733;23;20036;-89
2022/08/11 03:07:39;;;;;;;13.02;8.43;;;;;;;;;;6177005;23;20005;-89
2022/08/11 03:10:20;;;;;;;17.23;9.80;;;;;;;;;;6180202;23;20020;-88
2022/08/11 03:18:55;;;;;;;18.00;8.55;;;;;;;;;;6179610;23;20020;-88
2022/08/11 03:21:23;;;;;;;20.02;7.82;;;;;;;;;;6178364;23;20013;-89
2022/08/11 03:23:49;;;;;;;14.93;8.57;;;;;;;;;;6190500;22;20012;-88
2022/08/11 03:26:15;;;;;;;17.70;8.98;;;;;;;;;;6211037;23;20035;-89
2022/08/11 03:29:00;;;;;;;15.90;8.43;;;;;;;;;;6213172;23;20004;-89
2022/08/11 03:31:46;;;;;;;15.88;8.70;;;;;;;;;;6214341;23;20040;-88
2022/08/11 03:34:17;;;;;;;15.98;8.32;;;;;;;;;;6213237;23;20095;-89
2022/08/11 03:36:49;;;;;;;18.80;8.43;;;;;;;;;;6238570;23;20062;-89
2022/08/11 03:39:15;;;;;;;20.98;9.43;;;;;;;;;;6211533;23;20036;-89
2022/08/11 03:41:45;;;;;;;14.57;8.63;;;;;;;;;;6211922;23;20012;-89
2022/08/11 03:44:23;;;;;;;17.00;9.73;;;;;;;;;;6214048;23;20018;-89
2022/08/11 03:47:09;;;;;;;17.92;9.15;;;;;;;;;;6211670;23;20008;-88
2022/08/11 03:49:55;;;;;;;16.05;9.02;;;;;;;;;;6138000;23;20004;-89
2022/08/11 03:52:40;;;;;;;15.20;8.98;;;;;;;;;;6211001;23;20471;-89
2022/08/11 03:55:25;;;;;;;16.90;8.68;;;;;;;;;;6210956;23;20604;-89
2022/08/11 03:57:58;;;;;;;18.27;9.75;;;;;;;;;;6211158;23;20004;-88
2022/08/11 04:00:36;;;;;;;19.58;9.75;;;;;;;;;;6238453;23;20019;-89
2022/08/11 04:03:11;;;;;;;20.88;11.30;;;;;;;;;;6213149;23;20094;-89
2022/08/11 04:06:15;;;;;;;23.13;11.23;;;;;;;;;;6211812;23;20068;-89
2022/08/11 04:09:00;;;;;;;19.67;9.80;;;;;;;;;;6062437;23;20002;-88
2022/08/11 04:11:45;;;;;;;19.75;10.48;;;;;;;;;;6063206;23;20082;-89
2022/08/11 04:17:18;;;;;;;17.73;9.60;;;;;;;;;;6237180;23;20023;-87
2022/08/11 04:19:49;;;;;;;17.23;9.65;;;;;;;;;;6210740;23;20038;-87
2022/08/11 04:22:34;;;;;;;26.15;10.10;;;;;;;;;;6209604;23;20008;-86
2022/08/11 04:25:22;;;;;;;18.73;10.07;;;;;;;;;;6206127;22;20536;-87
2022/08/11 04:28:07;;;;;;;25.70;12.63;;;;;;;;;;6204736;23;20008;-87
2022/08/11 04:30:49;;;;;;;29.40;13.93;;;;;;;;;;6206012;23;20001;-87
2022/08/11 04:33:15;;;;;;;28.27;14.55;;;;;;;;;;6206754;23;20119;-87
2022/08/11 04:35:50;;;;;;;30.35;14.68;;;;;;;;;;6205334;23;20039;-87
2022/08/11 04:38:40;;;;;;;26.30;14.15;;;;;;;;;;6206110;23;20008;-87
2022/08/11 04:41:25;;;;;;;31.38;14.95;;;;;;;;;;6204968;23;20062;-87
2022/08/11 04:44:24;;;;;;;29.13;14.77;;;;;;;;;;6206032;23;20016;-87
2022/08/11 04:46:50;;;;;;;29.75;13.13;;;;;;;;;;6124335;23;20040;-87
2022/08/11 05:03:43;;;;;;;20.40;10.00;;;;;;;;;;6206799;23;20023;-87
2022/08/11 05:06:30;;;;;;;15.75;10.05;;;;;;;;;;6204783;23;20001;-87
2022/08/11 05:09:19;;;;;;;16.15;8.52;;;;;;;;;;6204293;23;20088;-87
2022/08/11 05:11:45;;;;;;;16.50;8.63;;;;;;;;;;6204488;23;20116;-87
2022/08/11 05:36:47;;;;;;;10.35;6.63;;;;;;;;;;6236770;23;20340;-87
2022/08/11 05:58:44;;;;;;;10.25;6.20;;;;;;;;;;6235903;23;20019;-86
2022/08/11 06:01:12;;;;;;;12.30;6.80;;;;;;;;;;6210697;23;20015;-85
2022/08/11 06:04:24;;;;;;;10.77;6.78;;;;;;;;;;6210446;23;20051;-84
2022/08/11 06:06:26;;;;;;;22.92;8.10;;;;;;;;;;6222322;23;20444;-84
2022/08/11 06:08:56;;;;;;;10.98;6.32;;;;;;;;;;6210565;23;20038;-84
2022/08/11 06:11:23;;;;;;;13.15;6.30;;;;;;;;;;6212724;23;20013;-86
2022/08/11 06:13:51;;;;;;;9.57;6.50;;;;;;;;;;6211421;23;20047;-85
2022/08/11 06:16:21;;;;;;;12.57;6.53;;;;;;;;;;6211093;23;20018;-86
2022/08/11 06:18:48;;;;;;;14.68;6.85;;;;;;;;;;6212461;23;20376;-84
2022/08/11 06:21:15;;;;;;;14.10;6.32;;;;;;;;;;6211206;23;20016;-84
2022/08/11 06:23:42;;;;;;;14.60;6.13;;;;;;;;;;6212406;22;20012;-89
2022/08/11 06:26:13;;;;;;;7.53;5.63;;;;;;;;;;6209959;23;20016;-85
2022/08/11 06:28:41;;;;;;;14.90;6.25;;;;;;;;;;6209472;23;20001;-84
2022/08/11 06:31:22;;;;;;;10.27;5.95;;;;;;;;;;6207307;23;20032;-84
2022/08/11 06:34:07;;;;;;;10.40;5.88;;;;;;;;;;6208354;23;20011;-84
2022/08/11 06:36:51;;;;;;;8.43;5.28;;;;;;;;;;6206825;23;20440;-84
2022/08/11 06:39:23;;;;;;;10.20;6.13;;;;;;;;;;6207539;23;20012;-84
2022/08/11 06:41:52;;;;;;;6.88;5.22;;;;;;;;;;6205360;23;20455;-84
2022/08/11 06:44:22;;;;;;;8.05;6.07;;;;;;;;;;6208412;23;20019;-84
2022/08/11 06:46:50;;;;;;;9.18;5.20;;;;;;;;;;6206593;23;20008;-84
2022/08/11 06:52:07;;;;;;;10.32;5.50;;;;;;;;;;6234197;23;20022;-84
2022/08/11 06:54:40;;;;;;;8.98;5.30;;;;;;;;;;6210095;23;20310;-84
2022/08/11 07:02:37;;;;;;;;;;;;;;;;;;6238307;23;20014;-84
2022/08/11 07:05:07;;;;;;;20.10;5.85;;;;;;;;;;6208002;23;19904;-84
2022/08/11 07:16:18;;;;;;;5.25;4.65;;;;;;;;;;6230698;23;20027;-85
2022/08/11 07:30:17;;;;;;;10.15;4.43;;;;;;;;;;6236813;23;20070;-85
2022/08/11 07:32:53;;;;;;;8.32;5.30;;;;;;;;;;6208434;23;20309;-85
2022/08/11 07:35:27;;;;;;;5.90;4.10;;;;;;;;;;6235525;23;20061;-86
2022/08/11 07:37:56;;;;;;;5.45;4.25;;;;;;;;;;6209124;23;20107;-85
2022/08/11 07:40:23;;;;;;;5.82;4.35;;;;;;;;;;6208760;23;20448;-84
2022/08/11 07:42:51;;;;;;;13.57;4.75;;;;;;;;;;6209495;23;20559;-85
2022/08/11 07:53:35;;;;;;;7.15;4.03;;;;;;;;;;6235184;23;20070;-84
2022/08/11 07:56:01;;;;;;;5.80;3.78;;;;;;;;;;6209914;23;20057;-85
2022/08/11 08:17:57;;;;;;;3.88;3.25;;;;;;;;;;6235652;23;20050;-85
2022/08/11 08:20:25;;;;;;;10.45;2.85;;;;;;;;;;6207454;23;20011;-85
2022/08/11 08:22:55;;;;;;;4.55;2.70;;;;;;;;;;6235916;23;20000;-85
2022/08/11 08:25:30;;;;;;;6.95;2.72;;;;;;;;;;6209301;22;20020;-85
2022/08/11 08:27:57;;;;;;;4.95;2.85;;;;;;;;;;6208462;23;20008;-85
2022/08/11 08:33:11;;;;;;;3.92;2.85;;;;;;;;;;6234155;23;20208;-84
2022/08/11 08:35:37;;;;;;;4.25;3.03;;;;;;;;;;6209449;23;20010;-85
2022/08/11 08:38:04;;;;;;;6.50;2.72;;;;;;;;;;6209068;23;20012;-86
2022/08/11 08:40:30;;;;;;;5.85;3.10;;;;;;;;;;6210280;23;20095;-85
2022/08/11 08:42:58;;;;;;;7.85;3.47;;;;;;;;;;6235520;23;20035;-85
2022/08/11 08:45:26;;;;;;;3.85;2.88;;;;;;;;;;6208384;23;20099;-85
2022/08/11 08:48:00;;;;;;;6.78;3.25;;;;;;;;;;6209565;23;20004;-86
2022/08/11 08:51:32;;;;;;;7.82;2.65;;;;;;;;;;6207421;23;20341;-85
2022/08/11 08:53:14;;;;;;;3.72;2.90;;;;;;;;;;6235108;23;20259;-85
2022/08/11 08:55:40;;;;;;;6.20;2.95;;;;;;;;;;6207540;23;20329;-85
2022/08/11 08:58:07;;;;;;;7.15;2.20;;;;;;;;;;6208513;23;20336;-85
2022/08/11 09:00:42;;;;;;;7.75;2.40;;;;;;;;;;6209931;23;20019;-85
2022/08/11 09:03:08;;;;;;;;;;;;;;;;;;6236420;23;20004;-85
2022/08/11 09:05:34;;;;;;;8.90;2.58;;;;;;;;;;6207609;23;20300;-86
2022/08/11 09:08:00;;;;;;;2.22;1.90;;;;;;;;;;6236266;23;20004;-85
2022/08/11 09:10:29;;;;;;;6.57;2.50;;;;;;;;;;6207692;23;20000;-86
2022/08/11 09:12:56;;;;;;;10.43;2.28;;;;;;;;;;6207324;23;20035;-85
2022/08/11 09:15:23;;;;;;;3.20;2.30;;;;;;;;;;6210026;23;20457;-85
2022/08/11 09:17:57;;;;;;;5.63;1.92;;;;;;;;;;6209216;23;20008;-86
2022/08/11 09:20:28;;;;;;;2.20;2.00;;;;;;;;;;6238324;23;20004;-86
2022/08/11 09:28:29;;;;;;;8.07;2.03;;;;;;;;;;6237200;23;20050;-85
2022/08/11 09:30:56;;;;;;;8.98;2.40;;;;;;;;;;6210977;23;20008;-85
2022/08/11 09:33:23;;;;;;;2.28;1.90;;;;;;;;;;6210949;23;20043;-85
2022/08/11 09:35:50;;;;;;;5.25;2.35;;;;;;;;;;6238189;23;20008;-85
2022/08/11 09:41:04;;;;;;;9.82;2.70;;;;;;;;;;6238461;23;20015;-86
2022/08/11 09:46:16;;;;;;;5.18;2.25;;;;;;;;;;6237993;23;20534;-85
2022/08/11 09:48:44;;;;;;;8.10;2.75;;;;;;;;;;6211423;23;20000;-86
2022/08/11 09:51:11;;;;;;;8.23;2.35;;;;;;;;;;6212186;23;20313;-85
2022/08/11 09:53:38;;;;;;;6.32;2.28;;;;;;;;;;6233876;23;20000;-85
2022/08/11 09:58:12;;;;;;;6.30;2.50;;;;;;;;;;6209659;23;20015;-86
2022/08/11 09:58:51;;;;;;;1.70;1.55;;;;;;;;;;6236385;23;20012;-86
2022/08/11 10:01:26;;;;;;;6.65;2.50;;;;;;;;;;6211204;23;20019;-85
2022/08/11 10:04:00;;;;;;;6.70;1.95;;;;;;;;;;6207983;23;20014;-85
2022/08/11 10:09:15;;;;;;;6.97;1.90;;;;;;;;;;6237389;23;20108;-85
2022/08/11 10:11:42;;;;;;;4.80;2.25;;;;;;;;;;6237585;23;19996;-85
2022/08/11 10:16:54;;;;;;;6.05;1.65;;;;;;;;;;6235948;23;20074;-86
2022/08/11 10:19:20;;;;;;;5.70;1.77;;;;;;;;;;6235780;23;20031;-85
2022/08/11 10:27:26;;;;;;;5.45;1.73;;;;;;;;;;6236128;23;20062;-86
2022/08/11 10:35:26;;;;;;;2.35;1.90;;;;;;;;;;6236781;23;20023;-86
2022/08/11 10:37:53;;;;;;;7.30;1.70;;;;;;;;;;6208137;23;20491;-85
2022/08/11 10:40:23;;;;;;;2.80;2.03;;;;;;;;;;6210401;23;20504;-85
2022/08/11 10:43:11;;;;;;;7.18;2.13;;;;;;;;;;6208699;23;20004;-86
2022/08/11 10:48:25;;;;;;;3.10;2.05;;;;;;;;;;6235517;23;20373;-86
2022/08/11 10:59:08;;;;;;;;;;;;;;;;;;6237677;23;20027;-86
2022/08/11 11:01:36;;;;;;;5.72;2.55;;;;;;;;;;6209179;23;20280;-86
2022/08/11 11:04:11;;;;;;;5.15;2.47;;;;;;;;;;6209344;23;20436;-86
2022/08/11 11:06:56;;;;;;;3.92;2.67;;;;;;;;;;6209965;23;20095;-86
2022/08/11 11:09:31;;;;;;;8.97;2.47;;;;;;;;;;6207664;23;20008;-86
2022/08/11 11:20:29;;;;;;;5.53;2.78;;;;;;;;;;6237334;23;20315;-85
2022/08/11 11:22:57;;;;;;;5.28;2.95;;;;;;;;;;6209755;23;20007;-86
2022/08/11 11:25:42;;;;;;;4.50;2.72;;;;;;;;;;6235244;22;20016;-86
2022/08/11 11:28:26;;;;;;;4.70;2.60;;;;;;;;;;6208089;23;20097;-86
2022/08/11 11:30:58;;;;;;;4.70;2.43;;;;;;;;;;6238748;23;20625;-86
2022/08/11 11:33:43;;;;;;;4.68;2.22;;;;;;;;;;6211960;23;20095;-86
2022/08/11 11:36:17;;;;;;;5.75;2.15;;;;;;;;;;6208822;23;20337;-86
2022/08/11 11:38:43;;;;;;;6.80;2.17;;;;;;;;;;6207412;23;20491;-86
2022/08/11 11:41:25;;;;;;;2.10;1.80;;;;;;;;;;6208828;23;20019;-86
2022/08/11 11:43:56;;;;;;;5.57;1.73;;;;;;;;;;6209718;23;20022;-86
2022/08/11 11:46:24;;;;;;;5.47;2.15;;;;;;;;;;6206169;23;20008;-86
2022/08/11 11:48:50;;;;;;;3.67;2.42;;;;;;;;;;6209741;23;20007;-86
2022/08/11 11:51:16;;;;;;;1.90;1.73;;;;;;;;;;6239078;23;20459;-86
2022/08/11 11:53:44;;;;;;;2.33;1.92;;;;;;;;;;6238258;23;19996;-86
2022/08/11 11:56:11;;;;;;;2.65;1.85;;;;;;;;;;6210226;23;20038;-86
2022/08/11 12:01:32;;;;;;;2.65;1.77;;;;;;;;;;6202907;23;20483;-86
2022/08/11 12:04:00;;;;;;;7.07;1.85;;;;;;;;;;6210777;23;20012;-86
2022/08/11 12:06:26;;;;;;;4.53;2.10;;;;;;;;;;6211395;23;20004;-86
2022/08/11 12:08:54;;;;;;;2.20;1.88;;;;;;;;;;6237865;23;20004;-86
2022/08/11 12:14:08;;;;;;;3.78;2.15;;;;;;;;;;6235849;23;20015;-85
2022/08/11 12:16:36;;;;;;;4.28;2.08;;;;;;;;;;6209348;23;20004;-86
2022/08/11 12:19:11;;;;;;;5.25;2.08;;;;;;;;;;6210439;23;20537;-86
2022/08/11 12:27:19;;;;;;;2.45;2.03;;;;;;;;;;6209162;23;20008;-86
2022/08/11 12:27:20;;;;;;;5.90;1.90;;;;;;;;;;6199524;23;20125;-86
2022/08/11 12:29:50;;;;;;;4.45;2.17;;;;;;;;;;6234129;23;20004;-85
2022/08/11 12:32:17;;;;;;;10.75;2.00;;;;;;;;;;6235659;23;20429;-86
2022/08/11 12:34:43;;;;;;;2.83;2.00;;;;;;;;;;6234754;23;20008;-87
2022/08/11 12:37:11;;;;;;;5.18;1.95;;;;;;;;;;6208857;23;20004;-85
2022/08/11 12:45:30;;;;;;;2.67;1.80;;;;;;;;;;6235295;23;20115;-86
2022/08/11 12:53:32;;;;;;;7.32;1.88;;;;;;;;;;6234409;23;20015;-86
2022/08/11 12:58:49;;;;;;;2.55;2.05;;;;;;;;;;6234815;23;20129;-86
2022/08/11 13:06:45;;;;;;;2.35;1.80;;;;;;;;;;6233289;23;20022;-86
2022/08/11 13:09:12;;;;;;;1.77;1.67;;;;;;;;;;6209020;23;20004;-85
2022/08/11 13:14:25;;;;;;;2.38;1.73;;;;;;;;;;6235015;23;20394;-86
2022/08/11 13:19:43;;;;;;;2.17;1.60;;;;;;;;;;6233844;23;20099;-86
2022/08/11 13:22:09;;;;;;;4.13;1.45;;;;;;;;;;6207182;23;20016;-86
2022/08/11 13:24:42;;;;;;;2.55;1.73;;;;;;;;;;6206774;23;20012;-86
2022/08/11 13:27:11;;;;;;;6.43;1.67;;;;;;;;;;6233889;22;20070;-86
2022/08/11 13:29:39;;;;;;;3.50;1.52;;;;;;;;;;6206919;23;20035;-86
2022/08/11 13:32:05;;;;;;;2.92;1.58;;;;;;;;;;6209585;23;20015;-86
2022/08/11 13:34:31;;;;;;;2.75;1.80;;;;;;;;;;6209796;23;20502;-86
2022/08/11 13:36:59;;;;;;;4.38;1.58;;;;;;;;;;6236023;23;20440;-86
2022/08/11 13:39:26;;;;;;;3.47;1.48;;;;;;;;;;6236958;23;20009;-86
2022/08/11 13:41:56;;;;;;;3.20;1.83;;;;;;;;;;6208799;23;20008;-86
2022/08/11 13:44:25;;;;;;;2.28;1.50;;;;;;;;;;6237676;23;20386;-86
2022/08/11 13:46:55;;;;;;;1.40;1.30;;;;;;;;;;6208746;23;20118;-86
2022/08/11 13:49:22;;;;;;;3.95;1.27;;;;;;;;;;6210898;23;20014;-86
2022/08/11 13:51:48;;;;;;;3.15;1.77;;;;;;;;;;6208589;23;20437;-86
2022/08/11 13:54:19;;;;;;;2.08;1.60;;;;;;;;;;6209937;23;20481;-86
2022/08/11 13:56:46;;;;;;;7.95;1.70;;;;;;;;;;6206778;23;20008;-86
2022/08/11 13:59:13;;;;;;;2.75;1.73;;;;;;;;;;6210891;23;20009;-85
2022/08/11 14:01:47;;;;;;;3.60;1.70;;;;;;;;;;6209511;23;20011;-85
2022/08/11 14:04:14;;;;;;;1.92;1.60;;;;;;;;;;6236242;23;20425;-85
2022/08/11 14:06:44;;;;;;;6.47;1.60;;;;;;;;;;6209890;23;20454;-85
2022/08/11 14:09:10;;;;;;;3.42;1.70;;;;;;;;;;6209874;23;20008;-85
2022/08/11 14:14:25;;;;;;;5.60;1.80;;;;;;;;;;6235771;23;20043;-85
2022/08/11 14:16:53;;;;;;;2.72;2.10;;;;;;;;;;6207415;23;20004;-85
2022/08/11 14:19:21;;;;;;;4.18;1.80;;;;;;;;;;6208380;23;20008;-85
2022/08/11 14:22:06;;;;;;;2.33;1.70;;;;;;;;;;6236527;23;20066;-85
2022/08/11 14:24:32;;;;;;;;;;;;;;;;;;6210912;23;20012;-85
2022/08/11 14:27:06;;;;;;;2.78;1.73;;;;;;;;;;6204755;22;20403;-85
2022/08/11 14:29:41;;;;;;;3.65;1.85;;;;;;;;;;6204920;23;20015;-85
2022/08/11 14:32:10;;;;;;;2.20;1.70;;;;;;;;;;6204541;23;20430;-86
2022/08/11 14:34:40;;;;;;;7.05;1.88;;;;;;;;;;6205297;23;20479;-85
2022/08/11 14:37:14;;;;;;;3.53;2.15;;;;;;;;;;6203585;23;20433;-86
2022/08/11 14:39:45;;;;;;;4.57;1.70;;;;;;;;;;6205677;23;20310;-85
2022/08/11 14:47:03;;;;;;;3.65;1.50;;;;;;;;;;6206185;23;20024;-85
2022/08/11 14:47:52;;;;;;;4.90;2.20;;;;;;;;;;6205614;23;20016;-85
2022/08/11 14:50:21;;;;;;;2.05;1.45;;;;;;;;;;6203570;23;20001;-85
2022/08/11 14:52:54;;;;;;;1.63;1.52;;;;;;;;;;6203556;23;20059;-85
2022/08/11 14:58:08;;;;;;;5.50;1.80;;;;;;;;;;6206111;23;20510;-86
2022/08/11 15:00:35;;;;;;;9.93;1.48;;;;;;;;;;6202745;23;20008;-85
2022/08/11 15:03:11;;;;;;;3.53;1.67;;;;;;;;;;6204335;23;20497;-85
2022/08/11 15:05:55;;;;;;;2.95;1.50;;;;;;;;;;6205011;23;20248;-85
2022/08/11 15:08:53;;;;;;;4.80;1.67;;;;;;;;;;6203584;23;20463;-86
2022/08/11 15:12:07;;;;;;;8.98;2.10;;;;;;;;;;6206108;23;20004;-85
2022/08/11 15:13:55;;;;;;;4.78;1.70;;;;;;;;;;6205851;23;20012;-85
2022/08/11 15:19:06;;;;;;;;;;;;;;;;;;6205149;23;20023;-86
2022/08/11 15:24:20;;;;;;;7.88;1.75;;;;;;;;;;6205123;23;20024;-85
2022/08/11 15:37:42;;;;;;;4.10;2.50;;;;;;;;;;6235693;23;20041;-85
2022/08/11 15:46:03;;;;;;;2.95;1.60;;;;;;;;;;6236245;23;20042;-86
2022/08/11 15:48:34;;;;;;;1.83;1.45;;;;;;;;;;6208150;23;20012;-86
2022/08/11 15:51:11;;;;;;;5.22;1.90;;;;;;;;;;6208605;23;20208;-86
2022/08/11 15:53:41;;;;;;;14.57;1.70;;;;;;;;;;6207127;23;20444;-86
2022/08/11 15:56:08;;;;;;;5.63;1.77;;;;;;;;;;6208273;23;20089;-86
2022/08/11 16:04:14;;;;;;;8.85;1.95;;;;;;;;;;6236894;23;20070;-86
2022/08/11 16:06:40;;;;;;;4.88;2.05;;;;;;;;;;6210713;23;20008;-86
2022/08/11 16:09:07;;;;;;;4.47;1.92;;;;;;;;;;6209051;23;20332;-86
2022/08/11 16:11:34;;;;;;;13.07;3.65;;;;;;;;;;6210618;23;20008;-86
2022/08/11 16:16:47;;;;;;;8.98;2.00;;;;;;;;;;6235244;23;20066;-85
2022/08/11 16:19:15;;;;;;;4.97;1.65;;;;;;;;;;6209861;23;20012;-86
2022/08/11 16:21:42;;;;;;;6.40;1.70;;;;;;;;;;6208452;23;20062;-86
2022/08/11 16:24:10;;;;;;;7.13;1.80;;;;;;;;;;6207295;23;20455;-87
2022/08/11 16:26:38;;;;;;;5.90;1.45;;;;;;;;;;6207359;22;20027;-86
2022/08/11 16:29:05;;;;;;;9.55;1.80;;;;;;;;;;6208774;23;20095;-86
2022/08/11 16:31:32;;;;;;;2.25;1.52;;;;;;;;;;6235471;23;20138;-87
2022/08/11 16:33:58;;;;;;;6.70;2.15;;;;;;;;;;6211666;23;20008;-86
2022/08/11 16:39:12;;;;;;;6.30;2.78;;;;;;;;;;6237921;23;20439;-86
2022/08/11 16:47:16;;;;;;;4.10;1.90;;;;;;;;;;6235341;23;20023;-89
2022/08/11 16:49:46;;;;;;;3.30;1.67;;;;;;;;;;6208625;23;20095;-90
2022/08/11 16:52:15;;;;;;;5.85;2.25;;;;;;;;;;6236121;23;20440;-92
2022/08/11 16:54:42;;;;;;;4.10;1.92;;;;;;;;;;6209141;23;20028;-86
2022/08/11 17:00:13;;;;;;;7.65;2.60;;;;;;;;;;6233929;23;20019;-84
2022/08/11 17:14:20;;;;;;;8.57;2.17;;;;;;;;;;6235584;23;20359;-85
2022/08/11 17:16:47;;;;;;;4.63;2.03;;;;;;;;;;6206064;23;20004;-85
2022/08/11 17:19:24;;;;;;;5.88;2.55;;;;;;;;;;6208190;23;20004;-85
2022/08/11 17:24:46;;;;;;;3.95;2.17;;;;;;;;;;6234960;23;20016;-86
2022/08/11 17:27:15;;;;;;;10.77;2.47;;;;;;;;;;6203837;22;20016;-86
2022/08/11 17:29:41;;;;;;;9.48;2.00;;;;;;;;;;6202022;23;20030;-85
2022/08/11 17:37:43;;;;;;;7.20;2.20;;;;;;;;;;6205736;23;20059;-85
2022/08/11 17:40:11;;;;;;;2.65;1.67;;;;;;;;;;6204161;23;20039;-85
2022/08/11 17:48:24;;;;;;;16.70;2.28;;;;;;;;;;6205878;23;19906;-85
2022/08/11 17:50:59;;;;;;;3.75;1.58;;;;;;;;;;6204255;23;20429;-85
2022/08/11 18:01:41;;;;;;;4.75;1.90;;;;;;;;;;6203671;23;20398;-85
2022/08/11 18:04:09;;;;;;;3.47;1.83;;;;;;;;;;6205248;23;20421;-85
2022/08/11 18:06:35;;;;;;;6.53;2.13;;;;;;;;;;6205700;23;20013;-85
